Time;durP1;ratioP1;P1;durP2;ratioP2;P2;SDS_P1;SDS_P2;PMS_P1;PMS_P2;Temp;Humidity;BMP_temperature;BMP_pressure;BME280_temperature;BME280_humidity;BME280_pressure;Samples;Min_cycle;Max_cycle;Signal;HPM_P1;HPM_P2
2021/12/14 00:01:31;;;;;;;148.38;48.10;;;;;;;-2.55;88.87;101893.45;1797748;78;25801;-82
2021/12/14 00:04:03;;;;;;;128.38;42.38;;;;;;;-2.55;88.87;101893.45;1797690;78;25939;-82
2021/12/14 00:06:29;;;;;;;107.58;40.75;;;;;;;-2.55;88.97;101888.20;1792575;78;25732;-83
2021/12/14 00:09:00;;;;;;;103.75;36.80;;;;;;;-2.49;89.08;101893.16;1790387;79;27428;-83
2021/12/14 00:16:46;;;;;;;86.50;34.20;;;;;;;-2.49;89.15;101892.70;1774085;79;25875;-83
2021/12/14 00:19:13;;;;;;;99.15;36.42;;;;;;;-2.47;89.09;101896.55;1784621;79;25698;-83
2021/12/14 00:21:43;;;;;;;107.75;36.38;;;;;;;-2.47;89.14;101893.48;1784580;79;27451;-83
2021/12/14 00:24:14;;;;;;;98.70;36.55;;;;;;;-2.45;89.34;101889.00;1779801;80;25731;-83
2021/12/14 00:26:48;;;;;;;87.00;33.23;;;;;;;-2.42;89.33;101893.27;1784593;79;26077;-82
2021/12/14 00:29:22;;;;;;;88.45;35.03;;;;;;;-2.42;89.22;101894.09;1780218;80;25485;-83
2021/12/14 00:31:51;;;;;;;97.85;36.58;;;;;;;-2.42;89.33;101895.40;1793726;79;25852;-83
2021/12/14 00:34:24;;;;;;;89.03;36.13;;;;;;;-2.41;89.35;101898.88;1779842;80;27616;-83
2021/12/14 00:36:46;;;;;;;97.85;35.05;;;;;;;-2.47;89.38;101893.48;1779390;80;25651;-83
2021/12/14 00:39:13;;;;;;;94.52;36.00;;;;;;;-2.44;89.28;101913.47;1780387;80;26183;-83
2021/12/14 00:41:40;;;;;;;99.25;37.78;;;;;;;-2.50;89.48;101904.09;1780559;80;25907;-82
2021/12/14 00:44:09;;;;;;;98.72;38.42;;;;;;;-2.43;89.51;101919.09;1802239;78;25893;-83
2021/12/14 00:46:36;;;;;;;116.37;37.42;;;;;;;-2.43;89.72;101926.52;1804214;79;27434;-83
2021/12/14 00:49:10;;;;;;;106.85;36.65;;;;;;;-2.42;89.69;101924.75;1786703;78;25721;-83
2021/12/14 00:51:36;;;;;;;97.57;35.98;;;;;;;-2.42;89.69;101924.75;1788803;79;25884;-82
2021/12/14 00:54:09;;;;;;;91.63;35.70;;;;;;;-2.39;89.79;101925.89;1780200;79;26576;-83
2021/12/14 00:56:36;;;;;;;109.07;38.88;;;;;;;-2.37;90.02;101920.11;1780342;79;25948;-83
2021/12/14 00:59:06;;;;;;;127.97;42.70;;;;;;;-2.37;89.83;101906.53;1780325;79;27401;-83
2021/12/14 01:01:39;;;;;;;110.60;37.10;;;;;;;-2.38;89.83;101914.48;1780240;80;25856;-83
2021/12/14 01:04:11;;;;;;;111.32;35.90;;;;;;;-2.42;89.75;101912.94;1780603;79;25460;-83
2021/12/14 01:06:44;;;;;;;98.97;36.83;;;;;;;-2.41;89.98;101914.63;1777171;80;25812;-82
2021/12/14 01:09:08;;;;;;;100.12;36.42;;;;;;;-2.39;90.01;101916.25;1734455;81;25783;-83
2021/12/14 01:11:42;;;;;;;98.67;37.00;;;;;;;-2.38;90.13;101900.92;1732694;81;27507;-83
2021/12/14 01:14:19;;;;;;;98.40;36.33;;;;;;;-2.35;90.10;101911.70;1738770;81;25783;-83
2021/12/14 01:16:55;;;;;;;114.97;37.70;;;;;;;-2.35;90.04;101907.31;1746845;81;25884;-83
2021/12/14 01:19:28;;;;;;;94.00;35.50;;;;;;;-2.38;90.17;101898.30;1711665;82;25889;-83
2021/12/14 01:22:18;;;;;;;98.65;36.90;;;;;;;-2.38;89.98;101890.42;1768077;81;26187;-83
2021/12/14 01:27:21;;;;;;;92.95;34.40;;;;;;;-2.41;89.91;101893.18;1748450;81;25889;-83
2021/12/14 01:29:52;;;;;;;87.47;33.20;;;;;;;-2.47;89.93;101882.13;1742911;81;25892;-83
2021/12/14 01:32:18;;;;;;;93.52;36.38;;;;;;;-2.45;90.03;101887.69;1757463;81;26507;-83
2021/12/14 01:34:44;;;;;;;86.57;33.83;;;;;;;-2.40;89.87;101894.03;1747158;81;25861;-83
2021/12/14 01:37:18;;;;;;;81.90;31.37;;;;;;;-2.40;89.96;101888.34;1743250;81;28250;-82
2021/12/14 01:40:02;;;;;;;84.90;36.48;;;;;;;-2.40;89.96;101888.34;1750896;81;25990;-83
2021/12/14 01:42:22;;;;;;;90.35;36.77;;;;;;;-2.38;89.99;101891.73;1740660;81;25856;-83
2021/12/14 01:44:57;;;;;;;77.17;29.90;;;;;;;-2.38;89.79;101889.11;1757600;81;25853;-83
2021/12/14 01:47:34;;;;;;;76.20;33.00;;;;;;;-2.43;89.79;101877.97;1749494;81;26001;-83
2021/12/14 01:50:14;;;;;;;78.50;32.63;;;;;;;-2.43;89.79;101877.97;1713730;82;28382;-83
2021/12/14 01:52:42;;;;;;;77.03;31.97;;;;;;;-2.42;89.82;101876.20;1746147;81;25872;-83
2021/12/14 01:55:14;;;;;;;80.97;32.40;;;;;;;-2.33;89.92;101890.17;1747955;81;25927;-83
2021/12/14 01:57:42;;;;;;;91.37;35.17;;;;;;;-2.33;89.97;101888.86;1760574;81;25883;-82
2021/12/14 02:00:33;;;;;;;82.60;34.90;;;;;;;-2.28;90.00;101889.50;1741844;81;25836;-83
2021/12/14 02:02:57;;;;;;;88.50;36.68;;;;;;;-2.26;90.24;101895.98;1753982;81;28430;-83
2021/12/14 02:05:37;;;;;;;98.75;36.38;;;;;;;-2.26;90.24;101895.98;1749058;81;26392;-82
2021/12/14 02:08:14;;;;;;;87.30;35.75;;;;;;;-2.26;89.91;101890.73;1724537;82;25864;-83
2021/12/14 02:10:42;;;;;;;90.90;34.33;;;;;;;-2.23;89.94;101887.97;1719198;82;25952;-83
2021/12/14 02:13:09;;;;;;;93.22;35.68;;;;;;;-2.23;90.09;101879.64;1740840;81;25827;-83
2021/12/14 02:15:44;;;;;;;100.70;36.03;;;;;;;-2.21;89.97;101883.50;1751035;81;28392;-83
2021/12/14 02:18:17;;;;;;;96.97;39.55;;;;;;;-2.20;89.87;101887.35;1741093;81;25796;-83
2021/12/14 02:21:00;;;;;;;92.33;36.42;;;;;;;-2.17;89.81;101883.73;1741535;81;26007;-83
2021/12/14 02:23:29;;;;;;;100.27;40.67;;;;;;;-2.16;89.82;101888.08;1754892;81;26261;-82
2021/12/14 02:26:02;;;;;;;108.10;40.75;;;;;;;-2.16;89.82;101888.08;1753197;81;25779;-83
2021/12/14 02:28:28;;;;;;;105.05;39.30;;;;;;;-2.15;89.72;101877.95;1745313;81;27468;-83
2021/12/14 02:30:58;;;;;;;105.35;40.83;;;;;;;-2.11;89.72;101881.66;1749421;81;26637;-83
2021/12/14 02:33:29;;;;;;;109.55;39.03;;;;;;;-2.09;89.34;101871.94;1766306;81;25840;-82
2021/12/14 02:35:58;;;;;;;101.45;41.85;;;;;;;-2.10;89.46;101874.64;1752667;81;25800;-83
2021/12/14 02:38:26;;;;;;;110.20;44.08;;;;;;;-2.13;89.34;101869.08;1736362;82;25804;-82
2021/12/14 02:41:01;;;;;;;102.55;41.35;;;;;;;-2.13;89.34;101869.08;1741286;81;27467;-83
2021/12/14 02:43:47;;;;;;;112.45;39.85;;;;;;;-2.12;89.54;101862.06;1748728;81;25897;-83
2021/12/14 02:46:29;;;;;;;108.47;36.68;;;;;;;-2.11;89.58;101859.35;1747264;81;26804;-83
2021/12/14 02:49:01;;;;;;;105.03;41.00;;;;;;;-2.12;89.49;101858.13;1737603;81;26448;-83
2021/12/14 02:51:33;;;;;;;94.35;36.70;;;;;;;-2.13;89.40;101859.89;1750838;81;26540;-83
2021/12/14 02:54:10;;;;;;;91.60;34.35;;;;;;;-2.15;89.45;101851.70;1748784;81;27584;-83
2021/12/14 02:56:39;;;;;;;100.55;37.90;;;;;;;-2.14;89.51;101856.04;1740217;81;25329;-83
2021/12/14 02:59:14;;;;;;;95.65;37.50;;;;;;;-2.15;89.56;101852.56;1765217;80;25940;-83
2021/12/14 03:01:44;;;;;;;98.52;37.55;;;;;;;-2.15;89.54;101855.18;1737753;81;25909;-83
2021/12/14 03:04:12;;;;;;;96.40;36.50;;;;;;;-2.11;89.61;101852.78;1738465;81;25830;-83
2021/12/14 03:06:48;;;;;;;97.37;38.17;;;;;;;-2.10;89.42;101858.89;1748637;81;27410;-83
2021/12/14 03:09:35;;;;;;;91.22;38.02;;;;;;;-2.08;89.51;101866.23;1749712;81;26047;-83
2021/12/14 03:11:48;;;;;;;88.80;37.98;;;;;;;-2.06;89.58;101864.37;1744401;81;25823;-83
2021/12/14 03:14:15;;;;;;;98.80;37.83;;;;;;;-2.04;89.64;101863.84;1753185;81;26645;-84
2021/12/14 03:16:42;;;;;;;110.70;42.15;;;;;;;-2.04;89.62;101863.38;1749342;81;25933;-83
2021/12/14 03:19:08;;;;;;;104.27;42.13;;;;;;;-2.05;89.62;101863.47;1764658;80;27525;-83
2021/12/14 03:21:39;;;;;;;103.50;41.90;;;;;;;-2.08;89.51;101838.67;1757447;80;25962;-83
2021/12/14 03:24:11;;;;;;;99.40;38.38;;;;;;;-2.08;89.51;101838.67;1762162;80;25811;-83
2021/12/14 03:26:43;;;;;;;97.12;38.55;;;;;;;-2.07;89.35;101846.91;1766463;80;25847;-83
2021/12/14 03:29:21;;;;;;;108.25;41.23;;;;;;;-2.08;89.38;101850.02;1758382;80;25917;-83
2021/12/14 03:31:53;;;;;;;103.12;40.58;;;;;;;-2.08;89.25;101844.78;1752640;81;27491;-83
2021/12/14 03:34:27;;;;;;;102.27;39.20;;;;;;;-2.11;89.15;101833.10;1767922;80;25843;-83
2021/12/14 03:37:08;;;;;;;95.45;40.78;;;;;;;-2.13;89.19;101834.09;1782404;80;25314;-83
2021/12/14 03:39:39;;;;;;;97.50;40.10;;;;;;;-2.15;89.24;101835.50;1755438;80;25840;-83
2021/12/14 03:42:13;;;;;;;96.42;38.13;;;;;;;-2.18;89.46;101830.38;1768723;80;26553;-83
2021/12/14 03:44:47;;;;;;;99.75;40.12;;;;;;;-2.18;89.18;101836.13;1737987;81;27456;-83
2021/12/14 03:47:24;;;;;;;102.00;41.60;;;;;;;-2.17;89.24;101843.05;1731426;81;25830;-83
2021/12/14 03:49:55;;;;;;;90.55;38.80;;;;;;;-2.18;89.01;101841.38;1746508;81;25932;-83
2021/12/14 03:52:30;;;;;;;106.32;42.83;;;;;;;-2.20;89.11;101840.11;1748182;81;26671;-83
2021/12/14 03:55:03;;;;;;;98.42;39.98;;;;;;;-2.17;89.10;101843.05;1747232;81;25774;-83
2021/12/14 03:57:29;;;;;;;94.60;39.65;;;;;;;-2.20;88.94;101848.47;1749266;81;27518;-83
2021/12/14 03:59:56;;;;;;;98.07;42.85;;;;;;;-2.21;89.01;101852.86;1722991;81;25721;-83
2021/12/14 04:02:23;;;;;;;98.82;40.15;;;;;;;-2.25;89.08;101832.09;1739450;81;25800;-82
2021/12/14 04:05:01;;;;;;;94.42;37.88;;;;;;;-2.25;89.08;101832.09;1749344;81;25912;-83
2021/12/14 04:07:24;;;;;;;97.05;39.58;;;;;;;-2.21;88.96;101847.61;1760559;81;26493;-82
2021/12/14 04:09:54;;;;;;;87.10;36.83;;;;;;;-2.26;89.41;101833.86;1758477;81;27447;-83
2021/12/14 04:12:21;;;;;;;93.33;40.50;;;;;;;-2.24;88.83;101833.77;1751220;81;25344;-83
2021/12/14 04:14:53;;;;;;;94.55;37.98;;;;;;;-2.31;88.90;101820.13;1738775;82;25690;-83
2021/12/14 04:17:24;;;;;;;102.53;41.40;;;;;;;-2.29;88.83;101835.34;1726143;82;25845;-83
2021/12/14 04:19:51;;;;;;;87.57;35.78;;;;;;;-2.29;88.83;101835.34;1739350;81;25562;-83
2021/12/14 04:22:23;;;;;;;95.53;37.08;;;;;;;-2.28;88.85;101829.60;1743309;81;27496;-83
2021/12/14 04:24:54;;;;;;;84.55;34.98;;;;;;;-2.29;88.74;101831.86;1755397;81;25749;-83
2021/12/14 04:27:26;;;;;;;92.78;39.60;;;;;;;-2.42;88.45;101807.51;1726240;82;25368;-83
2021/12/14 04:29:54;;;;;;;91.30;38.42;;;;;;;-2.42;88.45;101807.51;1731461;81;26572;-83
2021/12/14 04:32:21;;;;;;;87.80;37.28;;;;;;;-2.39;88.64;101816.55;1752472;81;26425;-83
2021/12/14 04:34:50;;;;;;;91.57;35.15;;;;;;;-2.41;88.58;101816.23;1735978;81;27508;-83
2021/12/14 04:37:17;;;;;;;87.65;36.85;;;;;;;-2.41;88.58;101826.73;1738840;81;26183;-83
2021/12/14 04:39:55;;;;;;;85.62;34.83;;;;;;;-2.41;88.62;101833.29;1734865;81;25786;-83
2021/12/14 04:53:46;;;;;;;85.90;36.70;;;;;;;-2.42;88.85;101845.55;1726595;82;25723;-83
2021/12/14 04:56:25;;;;;;;87.90;35.73;;;;;;;-2.38;88.93;101841.88;1736576;81;26846;-83
2021/12/14 04:59:06;;;;;;;87.53;35.73;;;;;;;-2.38;88.93;101841.88;1739476;81;26185;-83
2021/12/14 05:01:37;;;;;;;83.67;33.92;;;;;;;-2.38;88.90;101834.47;1739714;81;27411;-83
2021/12/14 05:04:09;;;;;;;79.90;32.98;;;;;;;-2.37;88.85;101833.52;1707637;82;25900;-83
2021/12/14 05:07:02;;;;;;;104.40;46.02;;;;;;;-2.37;88.77;101842.70;1736058;81;25825;-83
2021/12/14 05:09:34;;;;;;;104.63;42.85;;;;;;;-2.39;88.72;101842.80;1730743;81;25968;-83
2021/12/14 05:12:16;;;;;;;88.07;34.55;;;;;;;-2.38;88.70;101852.83;1732033;81;25355;-83
2021/12/14 05:14:47;;;;;;;92.25;38.75;;;;;;;-2.41;88.54;101859.07;1732180;81;27429;-82
2021/12/14 05:17:19;;;;;;;121.17;51.45;;;;;;;-2.40;88.60;101851.61;1739707;81;26517;-83
2021/12/14 05:19:48;;;;;;;97.45;41.55;;;;;;;-2.38;88.70;101847.13;1746458;81;25758;-84
2021/12/14 05:22:26;;;;;;;100.02;42.08;;;;;;;-2.34;88.93;101845.20;1743072;81;26011;-83
2021/12/14 05:24:59;;;;;;;100.02;40.55;;;;;;;-2.26;89.01;101835.17;1751952;81;26395;-83
2021/12/14 05:27:36;;;;;;;97.05;43.35;;;;;;;-2.26;89.01;101835.17;1739178;81;26953;-83
2021/12/14 05:30:22;;;;;;;106.75;45.20;;;;;;;-2.24;88.92;101842.50;1711201;82;25841;-83
2021/12/14 05:33:04;;;;;;;100.60;43.05;;;;;;;-2.22;88.88;101847.70;1738954;81;25333;-83
2021/12/14 05:35:31;;;;;;;101.92;42.15;;;;;;;-2.22;88.85;101849.01;1734449;81;25840;-83
2021/12/14 05:38:00;;;;;;;89.42;40.48;;;;;;;-2.22;88.86;101849.84;1736303;81;25778;-83
2021/12/14 05:43:11;;;;;;;95.65;43.10;;;;;;;-2.20;88.67;101835.35;1734984;81;25854;-82
2021/12/14 05:45:53;;;;;;;95.07;39.75;;;;;;;-2.20;88.67;101835.35;1754214;81;25930;-83
2021/12/14 05:48:25;;;;;;;;;;;;;;;-2.21;88.70;101827.93;1735231;81;25833;-82
2021/12/14 05:50:58;;;;;;;104.17;44.27;;;;;;;-2.25;88.60;101827.70;1737510;81;25754;-83
2021/12/14 05:53:34;;;;;;;94.37;42.27;;;;;;;-2.28;88.87;101827.84;1738308;81;27658;-83
2021/12/14 05:56:08;;;;;;;97.97;44.53;;;;;;;-2.27;88.90;101831.31;1727279;81;26790;-83
2021/12/14 05:58:35;;;;;;;90.07;37.30;;;;;;;-2.30;88.76;101821.81;1729141;81;25817;-82
2021/12/14 06:01:13;;;;;;;87.05;39.13;;;;;;;-2.32;88.75;101826.30;1736606;81;25791;-83
2021/12/14 06:03:53;;;;;;;92.80;40.70;;;;;;;-2.33;88.83;101826.37;1697578;83;25823;-83
2021/12/14 06:06:27;;;;;;;94.07;41.37;;;;;;;-2.31;89.48;101826.69;1736109;81;27458;-82
2021/12/14 06:09:11;;;;;;;104.05;48.63;;;;;;;-2.32;88.90;101814.94;1744079;81;25932;-83
2021/12/14 06:11:43;;;;;;;96.42;43.85;;;;;;;-2.32;88.90;101814.94;1733682;81;26556;-82
2021/12/14 06:14:23;;;;;;;103.45;43.30;;;;;;;-2.30;89.04;101813.94;1746112;81;25902;-83
2021/12/14 06:16:55;;;;;;;88.52;37.20;;;;;;;-2.29;89.04;101810.86;1754873;81;25355;-82
2021/12/14 06:19:35;;;;;;;96.47;38.95;;;;;;;-2.31;88.98;101807.47;1757007;81;27440;-82
2021/12/14 06:22:13;;;;;;;85.65;35.52;;;;;;;-2.30;88.99;101801.28;1736352;82;25738;-82
2021/12/14 06:24:44;;;;;;;84.10;35.85;;;;;;;-2.33;88.99;101801.45;1741063;81;25697;-82
2021/12/14 06:27:15;;;;;;;81.02;34.18;;;;;;;-2.33;89.10;101793.58;1745578;81;25867;-82
2021/12/14 06:29:52;;;;;;;77.20;32.78;;;;;;;-2.32;89.20;101800.05;1745575;81;25862;-82
2021/12/14 06:32:27;;;;;;;84.30;37.15;;;;;;;-2.30;89.16;101796.03;1755299;81;27472;-82
2021/12/14 06:35:05;;;;;;;85.95;33.00;;;;;;;-2.31;89.18;101787.33;1740913;81;25904;-82
2021/12/14 06:40:52;;;;;;;91.08;37.50;;;;;;;-2.29;89.26;101796.43;1749336;81;25802;-82
2021/12/14 06:43:27;;;;;;;77.60;33.63;;;;;;;-2.31;89.08;101793.03;1750482;81;25925;-83
2021/12/14 06:45:59;;;;;;;73.60;31.70;;;;;;;-2.30;89.36;101789.47;1746821;81;27455;-82
2021/12/14 06:48:31;;;;;;;84.55;39.35;;;;;;;-2.27;89.36;101793.27;1753579;81;26378;-82
2021/12/14 06:51:14;;;;;;;84.25;33.85;;;;;;;-2.27;89.26;101793.27;1730638;81;25895;-82
2021/12/14 06:53:51;;;;;;;81.25;36.20;;;;;;;-2.28;89.41;101789.78;1682128;81;25848;-82
2021/12/14 06:56:36;;;;;;;;;;;;;;;-2.26;89.45;101791.88;1743851;81;26088;-82
2021/12/14 06:59:23;;;;;;;80.85;35.08;;;;;;;-2.24;89.61;101783.91;1740267;81;28291;-82
2021/12/14 07:02:12;;;;;;;110.60;45.25;;;;;;;-2.20;89.79;101787.62;1729320;81;45651;-82
2021/12/14 07:04:52;;;;;;;86.90;37.03;;;;;;;-2.14;89.71;101794.36;1676359;81;25846;-83
2021/12/14 07:07:24;;;;;;;80.22;35.92;;;;;;;-2.16;89.69;101781.29;1754683;81;25825;-83
2021/12/14 07:10:00;;;;;;;75.40;32.05;;;;;;;-2.09;89.70;101781.38;1749616;81;26048;-83
2021/12/14 07:12:36;;;;;;;79.80;34.98;;;;;;;-2.07;89.67;101783.91;1745382;81;28113;-82
2021/12/14 07:15:25;;;;;;;76.72;32.17;;;;;;;-2.04;89.76;101783.77;1748394;81;26099;-82
2021/12/14 07:18:04;;;;;;;73.42;33.13;;;;;;;-2.00;89.82;101779.60;1749528;81;25776;-83
2021/12/14 07:20:49;;;;;;;69.97;32.90;;;;;;;-1.97;89.76;101770.73;1753280;81;26571;-82
2021/12/14 07:23:33;;;;;;;69.70;30.85;;;;;;;-1.93;89.76;101769.64;1749367;81;25798;-81
2021/12/14 07:26:12;;;;;;;74.32;33.63;;;;;;;-1.94;89.64;101774.03;1753052;81;27429;-79
2021/12/14 07:28:43;;;;;;;72.03;31.48;;;;;;;-2.00;89.69;101762.54;1753399;81;25768;-82
2021/12/14 07:31:19;;;;;;;70.65;31.12;;;;;;;-1.93;89.66;101785.39;1748510;81;25767;-80
2021/12/14 07:33:59;;;;;;;101.42;48.10;;;;;;;-1.91;89.80;101787.47;1745538;81;26388;-79
2021/12/14 07:36:33;;;;;;;87.42;37.15;;;;;;;-1.86;89.86;101788.09;1753716;81;26013;-77
2021/12/14 07:39:10;;;;;;;79.35;34.65;;;;;;;-1.84;89.72;101790.17;1744201;81;27470;-79
2021/12/14 07:41:48;;;;;;;80.30;35.43;;;;;;;-1.80;89.87;101789.09;1754634;81;26472;-79
2021/12/14 07:44:36;;;;;;;71.80;31.05;;;;;;;-1.77;89.91;101790.22;1746882;81;26589;-79
2021/12/14 07:47:05;;;;;;;77.15;33.70;;;;;;;-1.72;90.00;101796.10;1749032;81;26943;-78
2021/12/14 07:49:36;;;;;;;91.30;43.58;;;;;;;-1.71;89.89;101796.50;1750915;81;25739;-79
2021/12/14 07:52:11;;;;;;;78.35;35.38;;;;;;;-1.67;89.97;101788.35;1751618;81;27458;-79
2021/12/14 07:54:48;;;;;;;85.17;35.10;;;;;;;-1.63;90.02;101783.81;1749140;81;25823;-79
2021/12/14 07:57:31;;;;;;;85.30;34.20;;;;;;;-1.59;90.01;101782.25;1749592;81;25870;-78
2021/12/14 08:00:11;;;;;;;78.75;34.25;;;;;;;-1.56;90.01;101775.51;1745196;81;26605;-79
2021/12/14 08:02:48;;;;;;;88.67;38.98;;;;;;;-1.55;90.12;101776.37;1749121;81;25918;-80
2021/12/14 08:05:26;;;;;;;105.00;45.52;;;;;;;-1.52;90.18;101788.03;1751042;81;27448;-79
2021/12/14 08:08:17;;;;;;;134.18;62.88;;;;;;;-1.48;90.08;101792.66;1744727;81;26024;-79
2021/12/14 08:11:08;;;;;;;99.83;47.25;;;;;;;-1.46;90.00;101797.36;1749941;81;25841;-78
2021/12/14 08:13:23;;;;;;;88.45;40.40;;;;;;;-1.40;90.20;101789.15;1747532;81;26345;-79
2021/12/14 08:16:00;;;;;;;89.25;39.00;;;;;;;-1.34;90.33;101787.05;1721823;81;25915;-79
2021/12/14 08:18:37;;;;;;;89.05;37.78;;;;;;;-1.27;90.37;101784.94;1718968;82;27634;-79
2021/12/14 08:21:11;;;;;;;121.85;52.60;;;;;;;-1.24;90.37;101789.55;1724229;82;25858;-78
2021/12/14 08:23:57;;;;;;;88.78;42.08;;;;;;;-1.17;90.41;101791.38;1723949;82;25835;-79
2021/12/14 08:26:35;;;;;;;91.90;43.00;;;;;;;-1.16;90.20;101792.64;1744918;81;25951;-78
2021/12/14 08:29:15;;;;;;;154.50;72.67;;;;;;;-1.13;90.26;101788.51;1721195;82;25952;-79
2021/12/14 08:31:50;;;;;;;105.85;50.98;;;;;;;-1.07;90.36;101789.98;1719327;82;27543;-79
2021/12/14 08:34:25;;;;;;;99.92;46.90;;;;;;;-1.03;90.26;101802.87;1773348;80;26571;-79
2021/12/14 12:47:49;;;;;;;164.82;75.62;;;;;;;1.14;97.36;101613.49;1766735;79;26236;-80
2021/12/14 12:50:16;;;;;;;175.82;77.62;;;;;;;1.07;97.56;101609.56;1742821;80;26197;-80
2021/12/14 12:52:43;;;;;;;168.80;76.82;;;;;;;1.12;97.76;101610.58;1747059;81;27447;-81
2021/12/14 12:55:17;;;;;;;158.12;69.90;;;;;;;1.15;97.74;101605.97;1744970;81;25873;-80
2021/12/14 12:58:14;;;;;;;156.40;72.80;;;;;;;1.20;97.69;101602.52;1749627;81;25856;-81
2021/12/14 13:00:55;;;;;;;173.17;71.65;;;;;;;1.24;97.64;101606.64;1746150;81;25719;-81
2021/12/14 13:03:28;;;;;;;170.40;72.17;;;;;;;1.27;97.61;101597.68;1746973;81;25850;-80
2021/12/14 13:06:16;;;;;;;175.75;71.45;;;;;;;1.30;97.58;101600.13;1746782;81;27913;-80
2021/12/14 13:08:52;;;;;;;168.35;69.85;;;;;;;1.32;97.49;101605.68;1747882;81;25930;-81
2021/12/14 13:11:39;;;;;;;169.25;69.95;;;;;;;1.35;97.45;101596.68;1728038;81;25986;-81
2021/12/14 13:14:11;;;;;;;172.50;74.50;;;;;;;1.38;97.47;101601.77;1722067;81;25825;-80
2021/12/14 13:16:44;;;;;;;164.85;69.15;;;;;;;1.41;97.45;101597.12;1725663;81;25899;-80
2021/12/14 13:19:15;;;;;;;157.85;66.17;;;;;;;1.44;97.37;101605.31;1727699;81;27447;-80
2021/12/14 13:22:05;;;;;;;159.52;66.22;;;;;;;1.46;97.26;101596.80;1729329;81;25916;-79
2021/12/14 13:24:40;;;;;;;153.75;65.87;;;;;;;1.46;97.24;101589.73;1722594;81;26560;-81
2021/12/14 13:27:21;;;;;;;171.43;68.67;;;;;;;1.48;97.21;101598.40;1734067;81;26027;-80
2021/12/14 13:29:55;;;;;;;164.20;68.28;;;;;;;1.51;97.17;101606.59;1713480;82;25913;-81
2021/12/14 13:32:35;;;;;;;183.80;73.30;;;;;;;1.52;97.09;101611.76;1685642;83;28541;-81
2021/12/14 13:35:16;;;;;;;175.00;71.15;;;;;;;1.54;97.09;101604.58;1690906;84;26009;-81
2021/12/14 13:38:00;;;;;;;172.65;71.28;;;;;;;1.56;97.05;101605.31;1715048;82;32490;-81
2021/12/14 13:40:32;;;;;;;172.10;68.05;;;;;;;1.57;96.98;101600.89;1685725;83;25794;-80
2021/12/14 13:43:21;;;;;;;185.35;77.12;;;;;;;1.57;96.92;101592.97;1724108;81;25968;-80
2021/12/14 13:45:56;;;;;;;185.12;70.95;;;;;;;1.60;96.95;101593.23;1726640;81;28710;-81
2021/12/14 13:48:27;;;;;;;187.65;70.95;;;;;;;1.58;96.91;101592.85;1736982;81;26026;-81
2021/12/14 13:50:59;;;;;;;184.20;71.33;;;;;;;1.58;96.86;101595.49;1690620;83;25979;-80
2021/12/14 13:53:26;;;;;;;182.60;68.78;;;;;;;1.61;96.95;101600.19;1690616;84;26661;-80
2021/12/14 13:55:57;;;;;;;183.55;66.97;;;;;;;1.61;96.95;101610.28;1695676;83;26420;-79
2021/12/14 13:58:31;;;;;;;166.30;63.35;;;;;;;1.62;96.91;101608.03;1695940;82;27492;-79
2021/12/14 14:01:18;;;;;;;167.03;64.80;;;;;;;1.64;96.92;101606.13;1690237;82;26517;-79
2021/12/14 14:03:50;;;;;;;163.22;64.05;;;;;;;1.66;96.91;101609.97;1693585;82;25981;-79
2021/12/14 14:06:20;;;;;;;173.25;64.50;;;;;;;1.67;96.83;101605.08;1713918;81;25910;-79
2021/12/14 14:09:12;;;;;;;172.85;65.62;;;;;;;1.67;96.86;101604.58;1692960;82;26210;-80
2021/12/14 14:11:50;;;;;;;181.22;68.12;;;;;;;1.69;96.85;101615.06;1693370;82;27484;-81
2021/12/14 14:14:24;;;;;;;181.30;63.70;;;;;;;1.70;96.83;101600.89;1694564;82;25885;-80
2021/12/14 14:17:02;;;;;;;168.82;65.40;;;;;;;1.71;96.87;101604.73;1671705;82;25823;-81
2021/12/14 14:19:39;;;;;;;173.65;65.17;;;;;;;1.73;96.85;101609.94;1692418;82;25931;-81
2021/12/14 14:22:11;;;;;;;163.97;63.58;;;;;;;1.72;96.84;101605.12;1694430;84;25894;-81
2021/12/14 14:24:42;;;;;;;165.65;66.37;;;;;;;1.73;96.81;101608.14;1697362;82;27439;-80
2021/12/14 14:27:55;;;;;;;178.60;65.28;;;;;;;1.74;96.78;101605.00;1716520;81;26174;-80
2021/12/14 14:30:45;;;;;;;167.43;62.27;;;;;;;1.76;96.75;101611.88;1697479;82;26587;-81
2021/12/14 14:33:25;;;;;;;169.43;65.03;;;;;;;1.75;96.73;101605.39;1687011;84;25975;-79
2021/12/14 14:36:26;;;;;;;172.50;67.25;;;;;;;1.76;96.78;101607.06;1700435;83;25782;-80
2021/12/14 14:39:03;;;;;;;170.38;64.95;;;;;;;1.76;96.75;101608.38;1698244;84;28326;-80
2021/12/14 14:41:35;;;;;;;169.22;64.45;;;;;;;1.76;96.76;101603.09;1719963;83;25706;-81
2021/12/14 14:44:15;;;;;;;178.30;67.47;;;;;;;1.77;96.79;101599.05;1684013;83;25308;-82
2021/12/14 14:47:04;;;;;;;174.23;63.37;;;;;;;1.78;96.83;101601.19;1706913;81;25831;-80
2021/12/14 14:49:41;;;;;;;172.15;63.05;;;;;;;1.79;96.84;101601.11;1697674;83;25837;-80
2021/12/14 14:52:39;;;;;;;167.03;62.88;;;;;;;1.80;96.87;101601.93;1686203;83;28497;-80
2021/12/14 14:55:19;;;;;;;169.47;62.95;;;;;;;1.80;96.85;101598.82;1668926;83;25968;-80
2021/12/14 14:58:03;;;;;;;176.60;65.75;;;;;;;1.82;96.90;101597.41;1710013;82;25800;-80
2021/12/14 15:00:43;;;;;;;179.78;63.70;;;;;;;1.83;96.92;101599.09;1715770;82;25829;-80
2021/12/14 15:03:33;;;;;;;165.70;61.95;;;;;;;1.85;96.95;101601.15;1708036;82;26704;-80
2021/12/14 15:06:23;;;;;;;179.23;64.85;;;;;;;1.87;96.86;101603.20;1720481;82;27451;-80
2021/12/14 15:08:57;;;;;;;182.15;66.57;;;;;;;1.87;96.84;101601.88;1701633;82;25546;-80
2021/12/14 15:11:49;;;;;;;169.28;65.15;;;;;;;1.90;96.91;101608.29;1718204;82;25933;-80
2021/12/14 15:14:38;;;;;;;173.57;66.35;;;;;;;1.92;96.95;101611.20;1711167;82;25619;-79
2021/12/14 15:17:28;;;;;;;161.75;63.28;;;;;;;1.95;96.85;101612.29;1705597;84;25859;-81
2021/12/14 15:19:56;;;;;;;167.05;64.30;;;;;;;1.96;96.81;101607.39;1715061;82;27452;-79
2021/12/14 15:22:33;;;;;;;171.30;65.32;;;;;;;1.99;96.80;101606.33;1704478;84;25854;-80
2021/12/14 15:25:07;;;;;;;175.07;64.62;;;;;;;1.99;96.66;101595.27;1705313;83;25914;-80
2021/12/14 15:27:51;;;;;;;168.32;61.50;;;;;;;1.97;96.55;101595.00;1714282;82;25814;-83
2021/12/14 15:30:47;;;;;;;174.62;65.55;;;;;;;1.95;96.54;101595.11;1719060;82;25314;-84
2021/12/14 15:33:19;;;;;;;171.05;63.28;;;;;;;1.96;96.61;101598.61;1598761;89;27503;-82
2021/12/14 15:36:15;;;;;;;167.07;62.75;;;;;;;1.97;96.71;101592.35;1716182;81;25888;-82
2021/12/14 15:38:58;;;;;;;164.43;66.05;;;;;;;1.98;96.72;101593.59;1753712;81;25943;-80
2021/12/14 15:41:33;;;;;;;170.00;64.00;;;;;;;2.00;96.72;101606.69;1753877;81;26307;-82
2021/12/14 15:44:11;;;;;;;171.32;63.05;;;;;;;2.00;96.66;101608.86;1753564;81;25872;-80
2021/12/14 15:46:42;;;;;;;167.28;62.90;;;;;;;2.01;96.69;101604.42;1751698;81;27662;-80
2021/12/14 15:49:20;;;;;;;167.03;62.05;;;;;;;2.03;96.69;101611.27;1753293;81;26036;-80
2021/12/14 15:51:54;;;;;;;151.60;61.15;;;;;;;2.06;96.68;101616.82;1747108;81;26749;-80
2021/12/14 15:54:29;;;;;;;164.22;61.33;;;;;;;2.08;96.59;101610.95;1753197;81;25804;-80
2021/12/14 15:57:01;;;;;;;163.12;62.43;;;;;;;2.07;96.48;101611.45;1753248;81;26587;-79
2021/12/14 15:59:32;;;;;;;159.52;58.70;;;;;;;2.08;96.51;101604.34;1753901;81;28277;-80
2021/12/14 16:02:04;;;;;;;171.75;63.92;;;;;;;2.10;96.57;101601.96;1720902;82;25966;-80
2021/12/14 16:04:36;;;;;;;176.07;65.30;;;;;;;2.10;96.51;101598.00;1721093;82;25836;-81
2021/12/14 16:07:04;;;;;;;160.28;61.92;;;;;;;2.11;96.48;101594.42;1720147;82;25764;-79
2021/12/14 16:09:33;;;;;;;171.40;64.65;;;;;;;2.13;96.46;101589.87;1707791;82;25934;-81
2021/12/14 21:06:05;;;;;;;180.67;73.17;;;;;;;2.65;97.12;101633.73;1683608;81;26799;-80
2021/12/14 21:08:33;;;;;;;190.73;75.92;;;;;;;2.63;97.06;101629.84;1648955;85;33505;-77
2021/12/14 21:11:05;;;;;;;177.25;72.65;;;;;;;2.65;97.21;101631.08;1675353;81;26136;31
2021/12/14 21:13:39;;;;;;;185.15;73.05;;;;;;;2.65;97.07;101631.91;1693759;83;26490;-80
2021/12/14 21:16:29;;;;;;;188.47;75.90;;;;;;;2.64;97.19;101632.88;1695949;83;25962;-80